sensor_id;sensor_type;location;lat;lon;timestamp;P1;durP1;ratioP1;P2;durP2;ratioP2
7377;SDS011;3730;50.856;12.776;2022-10-19T00:01:50;14.83;;;10.27;;
7377;SDS011;3730;50.856;12.776;2022-10-19T00:04:16;17.30;;;9.80;;
7377;SDS011;3730;50.856;12.776;2022-10-19T00:06:42;13.23;;;8.23;;
7377;SDS011;3730;50.856;12.776;2022-10-19T00:09:10;12.63;;;8.07;;
7377;SDS011;3730;50.856;12.776;2022-10-19T00:11:38;11.13;;;7.57;;
7377;SDS011;3730;50.856;12.776;2022-10-19T00:14:04;12.87;;;7.17;;
7377;SDS011;3730;50.856;12.776;2022-10-19T00:16:31;14.60;;;8.13;;
7377;SDS011;3730;50.856;12.776;2022-10-19T00:18:59;12.10;;;8.10;;
7377;SDS011;3730;50.856;12.776;2022-10-19T00:21:25;10.97;;;7.47;;
7377;SDS011;3730;50.856;12.776;2022-10-19T00:23:51;11.77;;;8.53;;
7377;SDS011;3730;50.856;12.776;2022-10-19T00:26:17;11.37;;;7.63;;
7377;SDS011;3730;50.856;12.776;2022-10-19T00:28:43;14.03;;;8.90;;
7377;SDS011;3730;50.856;12.776;2022-10-19T00:31:14;13.73;;;8.57;;
7377;SDS011;3730;50.856;12.776;2022-10-19T00:33:40;14.43;;;8.33;;
7377;SDS011;3730;50.856;12.776;2022-10-19T00:36:13;14.07;;;8.37;;
7377;SDS011;3730;50.856;12.776;2022-10-19T00:38:40;15.07;;;9.17;;
7377;SDS011;3730;50.856;12.776;2022-10-19T00:41:06;14.27;;;8.73;;
7377;SDS011;3730;50.856;12.776;2022-10-19T00:43:48;14.57;;;9.30;;
7377;SDS011;3730;50.856;12.776;2022-10-19T00:46:14;16.27;;;9.17;;
7377;SDS011;3730;50.856;12.776;2022-10-19T00:48:40;15.93;;;9.37;;
7377;SDS011;3730;50.856;12.776;2022-10-19T00:51:07;21.10;;;10.97;;
7377;SDS011;3730;50.856;12.776;2022-10-19T00:53:33;18.33;;;12.33;;
7377;SDS011;3730;50.856;12.776;2022-10-19T00:56:02;18.77;;;11.57;;
7377;SDS011;3730;50.856;12.776;2022-10-19T00:58:29;17.17;;;11.97;;
7377;SDS011;3730;50.856;12.776;2022-10-19T01:00:57;20.27;;;11.40;;
7377;SDS011;3730;50.856;12.776;2022-10-19T01:03:23;16.63;;;11.23;;
7377;SDS011;3730;50.856;12.776;2022-10-19T01:05:49;17.03;;;10.53;;
7377;SDS011;3730;50.856;12.776;2022-10-19T01:08:16;15.83;;;10.40;;
7377;SDS011;3730;50.856;12.776;2022-10-19T01:10:48;14.30;;;9.93;;
7377;SDS011;3730;50.856;12.776;2022-10-19T01:13:27;15.57;;;10.20;;
7377;SDS011;3730;50.856;12.776;2022-10-19T01:16:01;13.73;;;9.33;;
7377;SDS011;3730;50.856;12.776;2022-10-19T01:18:35;16.33;;;10.50;;
7377;SDS011;3730;50.856;12.776;2022-10-19T01:21:19;16.70;;;10.07;;
7377;SDS011;3730;50.856;12.776;2022-10-19T01:32:01;15.80;;;10.10;;
7377;SDS011;3730;50.856;12.776;2022-10-19T01:34:42;15.83;;;8.57;;
7377;SDS011;3730;50.856;12.776;2022-10-19T01:37:23;19.97;;;11.77;;
7377;SDS011;3730;50.856;12.776;2022-10-19T01:39:55;15.73;;;9.23;;
7377;SDS011;3730;50.856;12.776;2022-10-19T01:45:13;17.50;;;8.70;;
7377;SDS011;3730;50.856;12.776;2022-10-19T01:47:47;18.90;;;9.13;;
7377;SDS011;3730;50.856;12.776;2022-10-19T01:50:22;12.70;;;8.43;;
7377;SDS011;3730;50.856;12.776;2022-10-19T01:52:49;14.27;;;7.90;;
7377;SDS011;3730;50.856;12.776;2022-10-19T01:55:16;13.13;;;8.57;;
7377;SDS011;3730;50.856;12.776;2022-10-19T01:57:47;14.10;;;7.87;;
7377;SDS011;3730;50.856;12.776;2022-10-19T02:00:13;11.87;;;8.83;;
7377;SDS011;3730;50.856;12.776;2022-10-19T02:02:42;14.47;;;8.87;;
7377;SDS011;3730;50.856;12.776;2022-10-19T02:05:09;15.27;;;8.70;;
7377;SDS011;3730;50.856;12.776;2022-10-19T02:07:36;16.30;;;9.47;;
7377;SDS011;3730;50.856;12.776;2022-10-19T02:10:02;16.60;;;9.80;;
7377;SDS011;3730;50.856;12.776;2022-10-19T02:12:29;15.60;;;9.00;;
7377;SDS011;3730;50.856;12.776;2022-10-19T02:14:56;14.73;;;10.10;;
7377;SDS011;3730;50.856;12.776;2022-10-19T02:17:25;15.50;;;9.83;;
7377;SDS011;3730;50.856;12.776;2022-10-19T02:19:52;16.33;;;10.47;;
7377;SDS011;3730;50.856;12.776;2022-10-19T02:22:18;20.47;;;10.27;;
7377;SDS011;3730;50.856;12.776;2022-10-19T02:24:44;15.87;;;10.20;;
7377;SDS011;3730;50.856;12.776;2022-10-19T02:27:10;14.57;;;9.23;;
7377;SDS011;3730;50.856;12.776;2022-10-19T02:29:37;12.57;;;9.23;;
7377;SDS011;3730;50.856;12.776;2022-10-19T02:32:03;15.13;;;8.87;;
7377;SDS011;3730;50.856;12.776;2022-10-19T02:34:29;14.97;;;9.20;;
7377;SDS011;3730;50.856;12.776;2022-10-19T02:36:56;20.30;;;10.47;;
7377;SDS011;3730;50.856;12.776;2022-10-19T02:39:22;12.30;;;10.10;;
7377;SDS011;3730;50.856;12.776;2022-10-19T02:41:50;18.43;;;10.23;;
7377;SDS011;3730;50.856;12.776;2022-10-19T02:44:18;15.07;;;10.00;;
7377;SDS011;3730;50.856;12.776;2022-10-19T02:46:55;18.57;;;11.27;;
7377;SDS011;3730;50.856;12.776;2022-10-19T02:49:23;17.43;;;10.53;;
7377;SDS011;3730;50.856;12.776;2022-10-19T02:54:24;18.90;;;10.53;;
7377;SDS011;3730;50.856;12.776;2022-10-19T02:56:50;16.23;;;9.90;;
7377;SDS011;3730;50.856;12.776;2022-10-19T02:59:16;14.73;;;9.37;;
7377;SDS011;3730;50.856;12.776;2022-10-19T03:01:42;14.40;;;9.50;;
7377;SDS011;3730;50.856;12.776;2022-10-19T03:04:08;15.37;;;10.53;;
7377;SDS011;3730;50.856;12.776;2022-10-19T03:06:34;20.47;;;10.10;;
7377;SDS011;3730;50.856;12.776;2022-10-19T03:09:00;14.00;;;8.60;;
7377;SDS011;3730;50.856;12.776;2022-10-19T03:11:26;14.43;;;9.70;;
7377;SDS011;3730;50.856;12.776;2022-10-19T03:13:52;15.83;;;9.57;;
7377;SDS011;3730;50.856;12.776;2022-10-19T03:16:18;15.10;;;9.97;;
7377;SDS011;3730;50.856;12.776;2022-10-19T03:18:46;14.10;;;8.93;;
7377;SDS011;3730;50.856;12.776;2022-10-19T03:21:12;16.23;;;10.13;;
7377;SDS011;3730;50.856;12.776;2022-10-19T03:23:38;16.90;;;10.50;;
7377;SDS011;3730;50.856;12.776;2022-10-19T03:26:05;18.67;;;10.37;;
7377;SDS011;3730;50.856;12.776;2022-10-19T03:28:31;20.87;;;11.30;;
7377;SDS011;3730;50.856;12.776;2022-10-19T03:30:57;16.63;;;10.17;;
7377;SDS011;3730;50.856;12.776;2022-10-19T03:33:23;15.20;;;9.43;;
7377;SDS011;3730;50.856;12.776;2022-10-19T03:35:50;15.00;;;9.37;;
7377;SDS011;3730;50.856;12.776;2022-10-19T03:38:16;14.93;;;9.03;;
7377;SDS011;3730;50.856;12.776;2022-10-19T03:40:42;13.10;;;8.60;;
7377;SDS011;3730;50.856;12.776;2022-10-19T03:43:08;14.07;;;8.53;;
7377;SDS011;3730;50.856;12.776;2022-10-19T03:45:34;18.23;;;9.03;;
7377;SDS011;3730;50.856;12.776;2022-10-19T03:48:00;19.83;;;9.73;;
7377;SDS011;3730;50.856;12.776;2022-10-19T03:50:26;15.57;;;9.30;;
7377;SDS011;3730;50.856;12.776;2022-10-19T03:52:53;16.10;;;9.13;;
7377;SDS011;3730;50.856;12.776;2022-10-19T03:55:19;17.37;;;8.57;;
7377;SDS011;3730;50.856;12.776;2022-10-19T03:57:45;17.33;;;8.80;;
7377;SDS011;3730;50.856;12.776;2022-10-19T04:00:11;13.43;;;9.13;;
7377;SDS011;3730;50.856;12.776;2022-10-19T04:02:37;12.87;;;8.13;;
7377;SDS011;3730;50.856;12.776;2022-10-19T04:05:03;17.43;;;8.63;;
7377;SDS011;3730;50.856;12.776;2022-10-19T04:07:30;16.83;;;8.40;;
7377;SDS011;3730;50.856;12.776;2022-10-19T04:09:55;13.20;;;8.70;;
7377;SDS011;3730;50.856;12.776;2022-10-19T04:12:21;16.70;;;8.30;;
7377;SDS011;3730;50.856;12.776;2022-10-19T04:14:47;14.70;;;8.80;;
7377;SDS011;3730;50.856;12.776;2022-10-19T04:17:13;15.07;;;8.70;;
7377;SDS011;3730;50.856;12.776;2022-10-19T04:19:39;15.13;;;9.27;;
7377;SDS011;3730;50.856;12.776;2022-10-19T04:22:05;14.60;;;7.67;;
7377;SDS011;3730;50.856;12.776;2022-10-19T04:24:31;16.40;;;7.80;;
7377;SDS011;3730;50.856;12.776;2022-10-19T04:26:57;15.87;;;7.97;;
7377;SDS011;3730;50.856;12.776;2022-10-19T04:29:24;13.10;;;8.23;;
7377;SDS011;3730;50.856;12.776;2022-10-19T04:31:51;18.47;;;9.73;;
7377;SDS011;3730;50.856;12.776;2022-10-19T04:34:17;18.43;;;9.73;;
7377;SDS011;3730;50.856;12.776;2022-10-19T04:36:43;13.30;;;7.47;;
7377;SDS011;3730;50.856;12.776;2022-10-19T04:39:09;15.73;;;7.50;;
7377;SDS011;3730;50.856;12.776;2022-10-19T04:41:36;14.07;;;8.70;;
7377;SDS011;3730;50.856;12.776;2022-10-19T04:44:02;18.03;;;8.73;;
7377;SDS011;3730;50.856;12.776;2022-10-19T04:46:30;13.50;;;7.93;;
7377;SDS011;3730;50.856;12.776;2022-10-19T04:48:56;12.10;;;7.23;;
7377;SDS011;3730;50.856;12.776;2022-10-19T04:51:22;12.17;;;8.03;;
7377;SDS011;3730;50.856;12.776;2022-10-19T04:53:48;13.03;;;8.60;;
7377;SDS011;3730;50.856;12.776;2022-10-19T04:56:18;15.83;;;7.57;;
7377;SDS011;3730;50.856;12.776;2022-10-19T04:58:45;13.80;;;7.90;;
7377;SDS011;3730;50.856;12.776;2022-10-19T05:01:12;13.57;;;7.13;;
7377;SDS011;3730;50.856;12.776;2022-10-19T05:03:39;12.23;;;6.90;;
7377;SDS011;3730;50.856;12.776;2022-10-19T05:06:05;9.60;;;7.13;;
7377;SDS011;3730;50.856;12.776;2022-10-19T05:08:31;18.37;;;7.60;;
7377;SDS011;3730;50.856;12.776;2022-10-19T05:11:01;15.33;;;7.43;;
7377;SDS011;3730;50.856;12.776;2022-10-19T05:13:27;15.70;;;8.17;;
7377;SDS011;3730;50.856;12.776;2022-10-19T05:15:54;12.60;;;7.70;;
7377;SDS011;3730;50.856;12.776;2022-10-19T05:18:20;13.23;;;8.00;;
7377;SDS011;3730;50.856;12.776;2022-10-19T05:20:46;15.67;;;8.67;;
7377;SDS011;3730;50.856;12.776;2022-10-19T05:23:12;14.17;;;7.73;;
7377;SDS011;3730;50.856;12.776;2022-10-19T05:25:38;9.60;;;7.20;;
7377;SDS011;3730;50.856;12.776;2022-10-19T05:28:03;11.73;;;6.97;;
7377;SDS011;3730;50.856;12.776;2022-10-19T05:30:29;15.07;;;6.87;;
7377;SDS011;3730;50.856;12.776;2022-10-19T05:32:56;10.03;;;6.93;;
7377;SDS011;3730;50.856;12.776;2022-10-19T05:35:22;14.07;;;7.97;;
7377;SDS011;3730;50.856;12.776;2022-10-19T05:37:52;14.23;;;8.37;;
7377;SDS011;3730;50.856;12.776;2022-10-19T05:40:18;13.73;;;8.97;;
7377;SDS011;3730;50.856;12.776;2022-10-19T05:42:44;21.00;;;10.90;;
7377;SDS011;3730;50.856;12.776;2022-10-19T05:45:10;17.33;;;10.43;;
7377;SDS011;3730;50.856;12.776;2022-10-19T05:47:36;16.67;;;8.93;;
7377;SDS011;3730;50.856;12.776;2022-10-19T05:50:02;16.00;;;9.00;;
7377;SDS011;3730;50.856;12.776;2022-10-19T05:52:28;10.80;;;8.00;;
7377;SDS011;3730;50.856;12.776;2022-10-19T05:54:54;14.73;;;7.37;;
7377;SDS011;3730;50.856;12.776;2022-10-19T05:57:22;14.70;;;7.90;;
7377;SDS011;3730;50.856;12.776;2022-10-19T05:59:48;12.90;;;7.60;;
7377;SDS011;3730;50.856;12.776;2022-10-19T06:02:14;13.37;;;8.33;;
7377;SDS011;3730;50.856;12.776;2022-10-19T06:04:40;16.27;;;8.97;;
7377;SDS011;3730;50.856;12.776;2022-10-19T06:07:06;17.97;;;9.33;;
7377;SDS011;3730;50.856;12.776;2022-10-19T06:09:32;13.60;;;9.03;;
7377;SDS011;3730;50.856;12.776;2022-10-19T06:12:00;15.27;;;7.93;;
7377;SDS011;3730;50.856;12.776;2022-10-19T06:14:26;11.60;;;7.00;;
7377;SDS011;3730;50.856;12.776;2022-10-19T06:16:52;15.00;;;8.53;;
7377;SDS011;3730;50.856;12.776;2022-10-19T06:19:18;10.30;;;7.87;;
7377;SDS011;3730;50.856;12.776;2022-10-19T06:21:44;18.67;;;9.20;;
7377;SDS011;3730;50.856;12.776;2022-10-19T06:24:10;12.37;;;7.83;;
7377;SDS011;3730;50.856;12.776;2022-10-19T06:26:37;13.50;;;8.33;;
7377;SDS011;3730;50.856;12.776;2022-10-19T06:29:03;16.23;;;8.30;;
7377;SDS011;3730;50.856;12.776;2022-10-19T06:31:30;13.13;;;7.27;;
7377;SDS011;3730;50.856;12.776;2022-10-19T06:33:56;13.47;;;6.77;;
7377;SDS011;3730;50.856;12.776;2022-10-19T06:36:23;14.37;;;7.23;;
7377;SDS011;3730;50.856;12.776;2022-10-19T06:38:50;13.37;;;6.50;;
7377;SDS011;3730;50.856;12.776;2022-10-19T06:41:17;16.47;;;7.50;;
7377;SDS011;3730;50.856;12.776;2022-10-19T06:43:43;11.43;;;6.43;;
7377;SDS011;3730;50.856;12.776;2022-10-19T06:46:10;15.13;;;6.73;;
7377;SDS011;3730;50.856;12.776;2022-10-19T06:48:37;11.30;;;6.60;;
7377;SDS011;3730;50.856;12.776;2022-10-19T06:51:03;11.50;;;6.17;;
7377;SDS011;3730;50.856;12.776;2022-10-19T06:53:30;12.30;;;6.30;;
7377;SDS011;3730;50.856;12.776;2022-10-19T06:55:58;22.90;;;7.17;;
7377;SDS011;3730;50.856;12.776;2022-10-19T06:58:24;13.30;;;6.53;;
7377;SDS011;3730;50.856;12.776;2022-10-19T07:00:54;14.27;;;6.43;;
7377;SDS011;3730;50.856;12.776;2022-10-19T07:03:21;10.67;;;6.30;;
7377;SDS011;3730;50.856;12.776;2022-10-19T07:05:54;11.67;;;6.93;;
7377;SDS011;3730;50.856;12.776;2022-10-19T07:08:20;13.87;;;5.87;;
7377;SDS011;3730;50.856;12.776;2022-10-19T07:10:53;15.07;;;6.53;;
7377;SDS011;3730;50.856;12.776;2022-10-19T07:13:19;10.40;;;5.73;;
7377;SDS011;3730;50.856;12.776;2022-10-19T07:15:46;10.13;;;5.57;;
7377;SDS011;3730;50.856;12.776;2022-10-19T07:18:12;11.60;;;5.60;;
7377;SDS011;3730;50.856;12.776;2022-10-19T07:20:39;9.63;;;4.90;;
7377;SDS011;3730;50.856;12.776;2022-10-19T07:23:05;9.87;;;4.40;;
7377;SDS011;3730;50.856;12.776;2022-10-19T07:25:31;10.03;;;4.37;;
7377;SDS011;3730;50.856;12.776;2022-10-19T07:27:57;8.87;;;4.63;;
7377;SDS011;3730;50.856;12.776;2022-10-19T07:30:24;16.63;;;5.30;;
7377;SDS011;3730;50.856;12.776;2022-10-19T07:32:50;8.53;;;4.63;;
7377;SDS011;3730;50.856;12.776;2022-10-19T07:35:16;6.87;;;3.87;;
7377;SDS011;3730;50.856;12.776;2022-10-19T07:37:42;6.93;;;3.77;;
7377;SDS011;3730;50.856;12.776;2022-10-19T07:40:08;10.77;;;4.23;;
7377;SDS011;3730;50.856;12.776;2022-10-19T07:42:34;14.93;;;3.40;;
7377;SDS011;3730;50.856;12.776;2022-10-19T07:45:01;7.67;;;3.67;;
7377;SDS011;3730;50.856;12.776;2022-10-19T07:47:28;9.67;;;4.23;;
7377;SDS011;3730;50.856;12.776;2022-10-19T07:49:53;7.03;;;4.10;;
7377;SDS011;3730;50.856;12.776;2022-10-19T07:52:19;9.47;;;4.40;;
7377;SDS011;3730;50.856;12.776;2022-10-19T07:54:45;8.50;;;5.67;;
7377;SDS011;3730;50.856;12.776;2022-10-19T07:57:13;9.40;;;5.10;;
7377;SDS011;3730;50.856;12.776;2022-10-19T07:59:39;9.50;;;4.53;;
7377;SDS011;3730;50.856;12.776;2022-10-19T08:02:10;11.37;;;4.40;;
7377;SDS011;3730;50.856;12.776;2022-10-19T08:04:38;6.03;;;3.77;;
7377;SDS011;3730;50.856;12.776;2022-10-19T08:07:04;8.10;;;4.53;;
7377;SDS011;3730;50.856;12.776;2022-10-19T08:09:30;9.80;;;4.37;;
7377;SDS011;3730;50.856;12.776;2022-10-19T08:11:56;10.83;;;4.40;;
7377;SDS011;3730;50.856;12.776;2022-10-19T08:14:22;5.73;;;3.73;;
7377;SDS011;3730;50.856;12.776;2022-10-19T08:16:48;11.10;;;4.27;;
7377;SDS011;3730;50.856;12.776;2022-10-19T08:19:15;9.67;;;4.10;;
7377;SDS011;3730;50.856;12.776;2022-10-19T08:21:42;7.87;;;5.50;;
7377;SDS011;3730;50.856;12.776;2022-10-19T08:24:09;7.17;;;4.30;;
7377;SDS011;3730;50.856;12.776;2022-10-19T08:26:36;7.70;;;3.83;;
7377;SDS011;3730;50.856;12.776;2022-10-19T08:29:04;8.13;;;4.47;;
7377;SDS011;3730;50.856;12.776;2022-10-19T08:31:30;10.20;;;4.10;;
7377;SDS011;3730;50.856;12.776;2022-10-19T08:33:56;8.60;;;3.70;;
7377;SDS011;3730;50.856;12.776;2022-10-19T08:36:22;5.90;;;3.73;;
7377;SDS011;3730;50.856;12.776;2022-10-19T08:38:49;17.97;;;5.10;;
7377;SDS011;3730;50.856;12.776;2022-10-19T08:44:19;6.90;;;3.57;;
7377;SDS011;3730;50.856;12.776;2022-10-19T08:46:44;7.17;;;3.43;;
7377;SDS011;3730;50.856;12.776;2022-10-19T08:49:11;7.13;;;3.67;;
7377;SDS011;3730;50.856;12.776;2022-10-19T08:51:40;8.13;;;3.50;;
7377;SDS011;3730;50.856;12.776;2022-10-19T08:54:10;8.43;;;3.00;;
7377;SDS011;3730;50.856;12.776;2022-10-19T08:56:43;9.97;;;3.13;;
7377;SDS011;3730;50.856;12.776;2022-10-19T09:01:50;5.10;;;2.90;;
7377;SDS011;3730;50.856;12.776;2022-10-19T09:04:21;8.13;;;3.50;;
7377;SDS011;3730;50.856;12.776;2022-10-19T09:06:51;9.40;;;3.97;;
7377;SDS011;3730;50.856;12.776;2022-10-19T09:09:21;6.23;;;3.03;;
7377;SDS011;3730;50.856;12.776;2022-10-19T09:11:48;6.10;;;2.77;;
7377;SDS011;3730;50.856;12.776;2022-10-19T09:14:24;6.13;;;2.80;;
7377;SDS011;3730;50.856;12.776;2022-10-19T09:16:53;8.53;;;6.70;;
7377;SDS011;3730;50.856;12.776;2022-10-19T09:19:21;6.67;;;4.00;;
7377;SDS011;3730;50.856;12.776;2022-10-19T09:21:50;6.03;;;2.40;;
7377;SDS011;3730;50.856;12.776;2022-10-19T09:26:55;6.37;;;2.00;;
7377;SDS011;3730;50.856;12.776;2022-10-19T09:29:25;11.27;;;2.27;;
7377;SDS011;3730;50.856;12.776;2022-10-19T09:31:54;6.33;;;2.00;;
7377;SDS011;3730;50.856;12.776;2022-10-19T09:34:31;4.23;;;1.93;;
7377;SDS011;3730;50.856;12.776;2022-10-19T09:36:59;8.20;;;2.60;;
7377;SDS011;3730;50.856;12.776;2022-10-19T09:39:26;3.07;;;2.10;;
7377;SDS011;3730;50.856;12.776;2022-10-19T09:41:53;5.17;;;2.33;;
7377;SDS011;3730;50.856;12.776;2022-10-19T09:44:20;6.60;;;2.53;;
7377;SDS011;3730;50.856;12.776;2022-10-19T09:46:47;4.57;;;2.60;;
7377;SDS011;3730;50.856;12.776;2022-10-19T09:49:19;7.17;;;2.70;;
7377;SDS011;3730;50.856;12.776;2022-10-19T09:52:02;9.33;;;3.03;;
7377;SDS011;3730;50.856;12.776;2022-10-19T09:54:33;3.33;;;2.73;;
7377;SDS011;3730;50.856;12.776;2022-10-19T09:56:59;6.47;;;3.20;;
7377;SDS011;3730;50.856;12.776;2022-10-19T09:59:27;7.17;;;2.83;;
7377;SDS011;3730;50.856;12.776;2022-10-19T10:04:34;7.97;;;3.27;;
7377;SDS011;3730;50.856;12.776;2022-10-19T10:07:00;8.17;;;3.23;;
7377;SDS011;3730;50.856;12.776;2022-10-19T10:09:28;7.60;;;2.83;;
7377;SDS011;3730;50.856;12.776;2022-10-19T10:11:58;4.67;;;3.17;;
7377;SDS011;3730;50.856;12.776;2022-10-19T10:14:34;4.90;;;2.43;;
7377;SDS011;3730;50.856;12.776;2022-10-19T10:17:17;5.30;;;2.27;;
7377;SDS011;3730;50.856;12.776;2022-10-19T10:19:50;4.63;;;2.70;;
7377;SDS011;3730;50.856;12.776;2022-10-19T10:22:23;5.67;;;2.10;;
7377;SDS011;3730;50.856;12.776;2022-10-19T10:24:50;4.10;;;2.03;;
7377;SDS011;3730;50.856;12.776;2022-10-19T10:27:24;8.03;;;2.50;;
7377;SDS011;3730;50.856;12.776;2022-10-19T10:29:53;4.10;;;1.73;;
7377;SDS011;3730;50.856;12.776;2022-10-19T10:32:20;4.40;;;1.67;;
7377;SDS011;3730;50.856;12.776;2022-10-19T10:34:47;4.57;;;2.00;;
7377;SDS011;3730;50.856;12.776;2022-10-19T10:37:52;4.47;;;1.60;;
7377;SDS011;3730;50.856;12.776;2022-10-19T10:40:18;3.60;;;1.43;;
7377;SDS011;3730;50.856;12.776;2022-10-19T10:42:45;3.53;;;1.50;;
7377;SDS011;3730;50.856;12.776;2022-10-19T10:47:41;5.83;;;1.50;;
7377;SDS011;3730;50.856;12.776;2022-10-19T10:50:15;3.20;;;1.60;;
7377;SDS011;3730;50.856;12.776;2022-10-19T10:52:41;2.40;;;1.70;;
7377;SDS011;3730;50.856;12.776;2022-10-19T10:55:20;3.27;;;1.70;;
7377;SDS011;3730;50.856;12.776;2022-10-19T10:57:47;3.33;;;1.67;;
7377;SDS011;3730;50.856;12.776;2022-10-19T11:00:15;3.40;;;1.60;;
7377;SDS011;3730;50.856;12.776;2022-10-19T11:02:51;3.60;;;1.57;;
7377;SDS011;3730;50.856;12.776;2022-10-19T11:05:25;6.93;;;2.20;;
7377;SDS011;3730;50.856;12.776;2022-10-19T11:07:52;4.47;;;2.10;;
7377;SDS011;3730;50.856;12.776;2022-10-19T11:10:24;4.03;;;1.90;;
7377;SDS011;3730;50.856;12.776;2022-10-19T11:15:30;6.90;;;2.53;;
7377;SDS011;3730;50.856;12.776;2022-10-19T11:18:33;3.83;;;2.00;;
7377;SDS011;3730;50.856;12.776;2022-10-19T11:32:09;4.13;;;2.13;;
7377;SDS011;3730;50.856;12.776;2022-10-19T11:47:22;4.90;;;2.57;;
7377;SDS011;3730;50.856;12.776;2022-10-19T11:52:25;2.77;;;1.90;;
7377;SDS011;3730;50.856;12.776;2022-10-19T11:58:13;3.43;;;1.90;;
7377;SDS011;3730;50.856;12.776;2022-10-19T12:00:34;2.57;;;2.10;;
7377;SDS011;3730;50.856;12.776;2022-10-19T12:06:12;2.97;;;1.73;;
7377;SDS011;3730;50.856;12.776;2022-10-19T12:09:36;4.03;;;1.70;;
7377;SDS011;3730;50.856;12.776;2022-10-19T12:13:58;4.70;;;2.60;;
7377;SDS011;3730;50.856;12.776;2022-10-19T12:16:45;7.20;;;3.60;;
7377;SDS011;3730;50.856;12.776;2022-10-19T12:19:18;7.03;;;3.70;;
7377;SDS011;3730;50.856;12.776;2022-10-19T12:21:44;8.73;;;4.50;;
7377;SDS011;3730;50.856;12.776;2022-10-19T12:24:12;6.13;;;2.80;;
7377;SDS011;3730;50.856;12.776;2022-10-19T12:26:40;6.47;;;2.27;;
7377;SDS011;3730;50.856;12.776;2022-10-19T12:29:12;1.33;;;1.23;;
7377;SDS011;3730;50.856;12.776;2022-10-19T12:31:39;4.77;;;1.70;;
7377;SDS011;3730;50.856;12.776;2022-10-19T12:44:55;7.13;;;1.90;;
7377;SDS011;3730;50.856;12.776;2022-10-19T12:47:26;4.60;;;1.80;;
7377;SDS011;3730;50.856;12.776;2022-10-19T12:52:34;2.97;;;1.60;;
7377;SDS011;3730;50.856;12.776;2022-10-19T12:57:39;4.63;;;1.97;;
7377;SDS011;3730;50.856;12.776;2022-10-19T13:00:17;1.97;;;1.40;;
7377;SDS011;3730;50.856;12.776;2022-10-19T13:02:44;5.37;;;2.10;;
7377;SDS011;3730;50.856;12.776;2022-10-19T13:05:21;3.40;;;1.70;;
7377;SDS011;3730;50.856;12.776;2022-10-19T13:07:47;2.97;;;2.00;;
7377;SDS011;3730;50.856;12.776;2022-10-19T13:10:19;4.90;;;1.87;;
7377;SDS011;3730;50.856;12.776;2022-10-19T13:12:45;4.80;;;2.93;;
7377;SDS011;3730;50.856;12.776;2022-10-19T13:17:57;12.07;;;6.87;;
7377;SDS011;3730;50.856;12.776;2022-10-19T13:20:40;7.50;;;4.20;;
7377;SDS011;3730;50.856;12.776;2022-10-19T13:25:35;3.87;;;2.87;;
7377;SDS011;3730;50.856;12.776;2022-10-19T13:45:58;3.70;;;1.43;;
7377;SDS011;3730;50.856;12.776;2022-10-19T13:49:04;4.07;;;1.83;;
7377;SDS011;3730;50.856;12.776;2022-10-19T13:51:39;2.90;;;1.50;;
7377;SDS011;3730;50.856;12.776;2022-10-19T13:56:52;3.43;;;1.90;;
7377;SDS011;3730;50.856;12.776;2022-10-19T14:02:49;8.43;;;1.97;;
7377;SDS011;3730;50.856;12.776;2022-10-19T14:10:24;13.33;;;5.53;;
7377;SDS011;3730;50.856;12.776;2022-10-19T14:12:51;5.87;;;3.30;;
7377;SDS011;3730;50.856;12.776;2022-10-19T14:17:43;2.93;;;1.67;;
7377;SDS011;3730;50.856;12.776;2022-10-19T14:22:54;5.53;;;1.70;;
7377;SDS011;3730;50.856;12.776;2022-10-19T14:25:24;4.20;;;1.60;;
7377;SDS011;3730;50.856;12.776;2022-10-19T14:27:58;5.90;;;1.70;;
7377;SDS011;3730;50.856;12.776;2022-10-19T14:30:25;3.87;;;1.40;;
7377;SDS011;3730;50.856;12.776;2022-10-19T14:32:53;1.83;;;1.50;;
7377;SDS011;3730;50.856;12.776;2022-10-19T14:35:23;4.60;;;2.00;;
7377;SDS011;3730;50.856;12.776;2022-10-19T14:37:52;4.97;;;1.63;;
7377;SDS011;3730;50.856;12.776;2022-10-19T14:40:32;3.37;;;2.30;;
7377;SDS011;3730;50.856;12.776;2022-10-19T14:42:58;2.77;;;1.87;;
7377;SDS011;3730;50.856;12.776;2022-10-19T14:45:31;4.70;;;1.40;;
7377;SDS011;3730;50.856;12.776;2022-10-19T14:48:04;7.23;;;2.20;;
7377;SDS011;3730;50.856;12.776;2022-10-19T14:53:12;3.03;;;1.60;;
7377;SDS011;3730;50.856;12.776;2022-10-19T14:55:41;2.83;;;1.50;;
7377;SDS011;3730;50.856;12.776;2022-10-19T14:58:09;22.43;;;2.83;;
7377;SDS011;3730;50.856;12.776;2022-10-19T15:00:37;3.30;;;1.40;;
7377;SDS011;3730;50.856;12.776;2022-10-19T15:03:04;5.40;;;1.73;;
7377;SDS011;3730;50.856;12.776;2022-10-19T15:05:34;4.33;;;1.63;;
7377;SDS011;3730;50.856;12.776;2022-10-19T15:08:07;4.00;;;1.77;;
7377;SDS011;3730;50.856;12.776;2022-10-19T15:10:40;7.90;;;4.30;;
7377;SDS011;3730;50.856;12.776;2022-10-19T15:13:06;7.57;;;5.00;;
7377;SDS011;3730;50.856;12.776;2022-10-19T15:15:37;8.73;;;4.30;;
7377;SDS011;3730;50.856;12.776;2022-10-19T15:18:11;3.03;;;2.13;;
7377;SDS011;3730;50.856;12.776;2022-10-19T15:20:40;2.30;;;1.60;;
7377;SDS011;3730;50.856;12.776;2022-10-19T15:23:52;3.03;;;2.10;;
7377;SDS011;3730;50.856;12.776;2022-10-19T15:26:10;4.27;;;2.60;;
7377;SDS011;3730;50.856;12.776;2022-10-19T15:28:37;6.27;;;2.60;;
7377;SDS011;3730;50.856;12.776;2022-10-19T15:31:25;4.20;;;2.20;;
7377;SDS011;3730;50.856;12.776;2022-10-19T15:33:51;3.40;;;1.60;;
7377;SDS011;3730;50.856;12.776;2022-10-19T15:36:17;3.53;;;1.60;;
7377;SDS011;3730;50.856;12.776;2022-10-19T15:38:48;4.20;;;1.90;;
7377;SDS011;3730;50.856;12.776;2022-10-19T15:41:19;7.73;;;2.67;;
7377;SDS011;3730;50.856;12.776;2022-10-19T15:43:49;3.00;;;1.90;;
7377;SDS011;3730;50.856;12.776;2022-10-19T15:53:57;2.90;;;1.53;;
7377;SDS011;3730;50.856;12.776;2022-10-19T15:56:24;3.80;;;2.17;;
7377;SDS011;3730;50.856;12.776;2022-10-19T15:58:51;3.83;;;2.20;;
7377;SDS011;3730;50.856;12.776;2022-10-19T16:01:18;4.00;;;2.83;;
7377;SDS011;3730;50.856;12.776;2022-10-19T16:03:45;5.27;;;2.70;;
7377;SDS011;3730;50.856;12.776;2022-10-19T16:06:11;3.10;;;2.20;;
7377;SDS011;3730;50.856;12.776;2022-10-19T16:08:37;4.63;;;2.43;;
7377;SDS011;3730;50.856;12.776;2022-10-19T16:11:03;9.53;;;4.60;;
7377;SDS011;3730;50.856;12.776;2022-10-19T16:13:29;13.40;;;6.07;;
7377;SDS011;3730;50.856;12.776;2022-10-19T16:15:59;10.53;;;4.90;;
7377;SDS011;3730;50.856;12.776;2022-10-19T16:18:26;4.27;;;3.37;;
7377;SDS011;3730;50.856;12.776;2022-10-19T16:20:52;4.57;;;2.80;;
7377;SDS011;3730;50.856;12.776;2022-10-19T16:23:19;4.13;;;2.50;;
7377;SDS011;3730;50.856;12.776;2022-10-19T16:25:45;3.47;;;2.47;;
7377;SDS011;3730;50.856;12.776;2022-10-19T16:28:11;2.83;;;2.20;;
7377;SDS011;3730;50.856;12.776;2022-10-19T16:30:37;2.97;;;2.60;;
7377;SDS011;3730;50.856;12.776;2022-10-19T16:33:03;3.17;;;2.70;;
7377;SDS011;3730;50.856;12.776;2022-10-19T16:35:29;4.90;;;2.43;;
7377;SDS011;3730;50.856;12.776;2022-10-19T16:37:55;3.80;;;2.03;;
7377;SDS011;3730;50.856;12.776;2022-10-19T16:40:22;5.50;;;3.00;;
7377;SDS011;3730;50.856;12.776;2022-10-19T16:42:49;4.13;;;2.87;;
7377;SDS011;3730;50.856;12.776;2022-10-19T16:45:15;5.67;;;4.23;;
7377;SDS011;3730;50.856;12.776;2022-10-19T16:47:41;11.73;;;5.30;;
7377;SDS011;3730;50.856;12.776;2022-10-19T16:50:07;5.27;;;3.20;;
7377;SDS011;3730;50.856;12.776;2022-10-19T16:52:33;4.70;;;2.80;;
7377;SDS011;3730;50.856;12.776;2022-10-19T16:54:59;2.90;;;2.17;;
7377;SDS011;3730;50.856;12.776;2022-10-19T16:57:25;3.80;;;2.90;;
7377;SDS011;3730;50.856;12.776;2022-10-19T16:59:51;5.97;;;3.70;;
7377;SDS011;3730;50.856;12.776;2022-10-19T17:02:18;17.30;;;3.30;;
7377;SDS011;3730;50.856;12.776;2022-10-19T17:04:44;4.93;;;2.50;;
7377;SDS011;3730;50.856;12.776;2022-10-19T17:07:11;2.77;;;2.30;;
7377;SDS011;3730;50.856;12.776;2022-10-19T17:09:37;2.73;;;2.30;;
7377;SDS011;3730;50.856;12.776;2022-10-19T17:12:04;3.13;;;2.27;;